Garden City Regional Airport
KGCK : now visible

Airfield :











YOU CAN JOIN US ON...

 
LOGIN :

Register | Disclaimer

   EN    FR    IT 

 









Legend :    VFR   Marginal VFR   IFR   Intensive IFR   Very Intensive IFR
Visi :
Ceiling :
>= 8 km
>= 3000ft
5 to 8 km
1000 to 3000 ft
1500m to 5 km
500 to 1000 ft
800 to 1500m
200 to 500 ft
< 800m
< 200 ft
Symbols :   Thunderstorms  Fog  Heavy snow  Heavy precipitations  Wind > 20 kt






- Airport Elevation : 2891 ft
- IATA code : GCK


KGCK - Garden City Regional

CURRENT METAR :
  • 190154Z 02006KT 10SM CLR 08/M02 A2995 RMK AO2 SLP144 T00781017

EXPIRED METARs :
  • 190054Z 01009KT 10SM CLR 09/M02 A2993 RMK AO2 SLP136 T00891017
  • 182354Z 34008KT 10SM CLR 11/M01 A2992 RMK AO2 SLP133 T01111006 10211 20111 53015

TAF KGCK
Valid from the 19 at 00:00 until the 20 at 00:00 UTC


182335Z 1900/1924 VRB05KT P6SM SKC
FM191400 18013G20KT P6SM FEW250
FM191600 17020G30KT P6SM FEW250



MET'MAP, your aeronautical weather chart ! - Copyright ORBIFLY December 2007 - Disclaimer

ORBIFLY MET'MAP TEAM :

Programming & Development : Alexandra Zaïnal
Concept & Development : Baudouin d'Aumeries
Co-Development & Prog : Marc-Olivier Méhu
Technical & hardware support : Manuel Goepfert

Contact : metmap@orbifly.com




SOURCES & CREDITS :

   NOAA       Earth
Advisory